Historique des mesures à Cassis (13260), France
Quotidien Résumé Mai 11, 2017 Unités:  Métrique    US   Métrique/US
« Précédent (Jour)
Suivant (Jour) »
Quotidien Hebdomadaire Mensuel Annuel Période au choix
  Maximum: Minimum: Moyenne:
Température: TemperatureC °C 15.9 °C 16.5 °C
Point de rosée: DewpointC °C 9.6 °C 11.3 °C
Humidité: Humidity % 63 % 68 %
Vitesse du vent: 0 km/h 0 km/h 8.2 km/h
Rafales: 0 km/h - -
Vent:- - SE
Pression: PressurehPa hPa 998.9 hPa -
Précipitations: 0.5 mm    
Historical Graphs
 
 
Mesures pour : Mai 11, 2017
Heure Temperature Point de rosée Pression Vent Vitesse du vent Rafales Humidité Pluie (par heure) Conditions
TemperatureC °C DewpointC °C PressurehPa hPa Calm     Humidity % HourlyPrecipMM mm SoftwareType W/m2
00:10 16.8 °C 10.4 °C 1003.3 hPa Calm   2.3 km/h 66 % 0.0 mm open2300-1.11 W/m2
01:10 16.1 °C 9.6 °C 1002.9 hPa Calm   7.6 km/h 65 % 0.0 mm open2300-1.11 W/m2
02:10 15.9 °C 9.6 °C 1002.3 hPa Calm   5.1 km/h 66 % 0.0 mm open2300-1.11 W/m2
03:10 16.5 °C 9.9 °C 1001.2 hPa SE 5.6 km/h 5.6 km/h 65 % 0.0 mm open2300-1.11 W/m2
04:10 16.7 °C 9.6 °C 1000.6 hPa SE 5.1 km/h 29.5 km/h 63 % 0.0 mm open2300-1.11 W/m2
05:10 16.8 °C 9.7 °C 999.9 hPa ESE 6.9 km/h 8 km/h 63 % 0.0 mm open2300-1.11 W/m2
06:10 16.5 °C 10.4 °C 999.2 hPa SSE 9.8 km/h 13.2 km/h 67 % 0.0 mm open2300-1.11 W/m2
07:10 16.4 °C 10.7 °C 998.9 hPa ESE 5.6 km/h 19.2 km/h 69 % 0.0 mm open2300-1.11 W/m2
08:10 17.8 °C 11.8 °C 999.2 hPa SE 9.3 km/h 17.4 km/h 68 % 0.0 mm open2300-1.11 W/m2
09:10 17.9 °C 11.4 °C 999.2 hPa ENE 22 km/h 34.8 km/h 66 % 0.0 mm open2300-1.11 W/m2
10:10 18.9 °C 11.9 °C 999.2 hPa SSE 22.5 km/h 39.4 km/h 64 % 0.0 mm open2300-1.11 W/m2
11:10 19.2 °C 12.4 °C 999.2 hPa SE 9.3 km/h 16.3 km/h 65 % 0.0 mm open2300-1.11 W/m2
12:10 18.4 °C 12.2 °C 999.9 hPa SE 18.7 km/h 27.7 km/h 67 % 0.0 mm open2300-1.11 W/m2
13:10 18.3 °C 12.8 °C 998.9 hPa ESE 16.9 km/h 16.9 km/h 70 % 0.0 mm open2300-1.11 W/m2
14:10 18.3 °C 12.8 °C 998.9 hPa SE 9.8 km/h 16.3 km/h 70 % 0.0 mm open2300-1.11 W/m2
15:10 17.2 °C 12.7 °C 998.9 hPa SE 27.7 km/h 27.7 km/h 75 % 0.0 mm open2300-1.11 W/m2
16:10 16.4 °C 12.8 °C 999.2 hPa South 13.2 km/h 14.5 km/h 79 % 0.0 mm open2300-1.11 W/m2
17:10 16.6 °C 13.2 °C 998.9 hPa SE 1.8 km/h 29 km/h 80 % 0.5 mm open2300-1.11 W/m2
18:11 16.8 °C 13.1 °C 999.2 hPa SSE 9.8 km/h 9.8 km/h 79 % 0.0 mm open2300-1.11 W/m2
19:10 17.1 °C 13.4 °C 999.2 hPa Calm   13.2 km/h 79 % 0.0 mm open2300-1.11 W/m2
20:11 17.1 °C 13.2 °C 999.2 hPa Calm     78 % 0.0 mm open2300-1.11 W/m2
21:10 16.9 °C 13.2 °C 999.5 hPa ESE 3.4 km/h 3.4 km/h 79 % 0.0 mm open2300-1.11 W/m2
22:10 16.6 °C 12.9 °C 1000.6 hPa SE 6.4 km/h 7.6 km/h 79 % 0.0 mm open2300-1.11 W/m2
23:10 16.3 °C 12.9 °C 1001.2 hPa Calm     80 % 0.0 mm open2300-1.11 W/m2
Observations météo à CASSIS
WU-History script by Weather Underground - 1 mb